Terminal Aerodrome Forecast
Issued by NWS Paducah, KY

Home | Current Version | Previous Version | Text Only | Print | Product List | Glossary On
Versions: 1 2 3 4 5 6 7 8 9 10 11 12 13 14 15 16 17 18 19 20 21 22 23 24
366
FTUS43 KPAH 271942 AAA
TAFEVV
TAF AMD
KEVV 271942Z 2720/2818 15005KT P6SM VCTS SCT025 BKN050CB
      TEMPO 2720/2724 2SM -TSRA BR BKN025CB
     FM280100 VRB03KT P6SM SCT040 BKN100
     FM280700 VRB02KT 4SM BR VCTS SCT020 OVC040CB
      TEMPO 2809/2813 3SM TSRA BR OVC010CB
     FM281600 24005KT P6SM SCT040 BKN100=

USA.gov is the U.S. government's official web portal to all federal, state and local government web resources and services.